Time;durP1;ratioP1;P1;durP2;ratioP2;P2;SDS_P1;SDS_P2;PMS_P1;PMS_P2;Temp;Humidity;BMP_temperature;BMP_pressure;BME280_temperature;BME280_humidity;BME280_pressure;Samples;Min_cycle;Max_cycle;Signal;HPM_P1;HPM_P2
2022/12/11 00:01:16;;;;;;;;;;;;;;;;;;5090716;28;758;-66
2022/12/11 00:03:42;;;;;;;;;;;;;;;;;;5091215;28;975;-65
2022/12/11 00:06:09;;;;;;;;;;;;;;;;;;5090141;28;1190;-65
2022/12/11 00:08:35;;;;;;;;;;;;;;;;;;5090521;28;880;-66
2022/12/11 00:11:00;;;;;;;;;;;;;;;;;;5088556;28;860;-63
2022/12/11 00:13:25;;;;;;;;;;;;;;;;;;5088767;28;1894;-63
2022/12/11 00:15:51;;;;;;;;;;;;;;;;;;5089807;28;805;-63
2022/12/11 00:18:16;;;;;;;;;;;;;;;;;;5089146;28;1148;-66
2022/12/11 00:20:41;;;;;;;;;;;;;;;;;;5089185;28;817;-66
2022/12/11 00:23:07;;;;;;;;;;;;;;;;;;5088866;28;778;-65
2022/12/11 00:25:32;;;;;;;;;;;;;;;;;;5088935;28;1159;-65
2022/12/11 00:27:57;;;;;;;;;;;;;;;;;;5088282;28;1476;-65
2022/12/11 00:30:22;;;;;;;;;;;;;;;;;;5090167;28;979;-65
2022/12/11 00:32:50;;;;;;;;;;;;;;;;;;5088308;28;1898;-65
2022/12/11 00:35:15;;;;;;;;;;;;;;;;;;5090249;28;860;-66
2022/12/11 00:37:40;;;;;;;;;;;;;;;;;;5089269;28;904;-65
2022/12/11 00:40:06;;;;;;;;;;;;;;;;;;5088308;28;1366;-65
2022/12/11 00:42:31;;;;;;;;;;;;;;;;;;5071779;28;1206;-65
2022/12/11 00:44:56;;;;;;;;;;;;;;;;;;5071490;28;1408;-65
2022/12/11 00:47:22;;;;;;;;;;;;;;;;;;5088990;28;1007;-65
2022/12/11 00:49:47;;;;;;;;;;;;;;;;;;5089943;28;813;-69
2022/12/11 00:52:13;;;;;;;;;;;;;;;;;;5088325;28;1918;-69
2022/12/11 00:54:38;;;;;;;;;;;;;;;;;;5071586;28;1329;-69
2022/12/11 00:57:03;;;;;;;;;;;;;;;;;;5089785;28;872;-66
2022/12/11 00:59:28;;;;;;;;;;;;;;;;;;5090240;28;857;-65
2022/12/11 01:01:53;;;;;;;;;;;;;;;;;;5088690;28;1226;-65
2022/12/11 01:04:19;;;;;;;;;;;;;;;;;;5089853;28;891;-65
2022/12/11 01:06:44;;;;;;;;;;;;;;;;;;5071481;28;1231;-66
2022/12/11 01:11:53;;;;;;;;;;;;;;;;;;5088849;28;1906;-65
2022/12/11 01:14:18;;;;;;;;;;;;;;;;;;5088941;28;868;-65
2022/12/11 01:16:44;;;;;;;;;;;;;;;;;;5071303;28;1248;-65
2022/12/11 01:19:09;;;;;;;;;;;;;;;;;;5090149;28;888;-65
2022/12/11 01:21:34;;;;;;;;;;;;;;;;;;5093057;28;959;-65
2022/12/11 01:23:59;;;;;;;;;;;;;;;;;;5094012;28;916;-65
2022/12/11 01:26:25;;;;;;;;;;;;;;;;;;5094750;28;1068;-65
2022/12/11 01:28:51;;;;;;;;;;;;;;;;;;5094128;28;852;-65
2022/12/11 01:31:16;;;;;;;;;;;;;;;;;;5075891;28;1203;-65
2022/12/11 01:33:42;;;;;;;;;;;;;;;;;;5091871;28;1945;-65
2022/12/11 01:36:09;;;;;;;;;;;;;;;;;;5092294;28;1025;-65
2022/12/11 01:38:34;;;;;;;;;;;;;;;;;;5093287;28;876;-65
2022/12/11 01:41:00;;;;;;;;;;;;;;;;;;5092558;28;955;-65
2022/12/11 01:43:25;;;;;;;;;;;;;;;;;;5074769;28;1211;-65
2022/12/11 01:45:50;;;;;;;;;;;;;;;;;;5091526;28;1045;-65
2022/12/11 01:48:21;;;;;;;;;;;;;;;;;;5091747;28;832;-65
2022/12/11 01:50:58;;;;;;;;;;;;;;;;;;5092648;28;817;-65
2022/12/11 01:53:27;;;;;;;;;;;;;;;;;;5093126;28;1910;-65
2022/12/11 01:55:53;;;;;;;;;;;;;;;;;;5092480;28;871;-65
2022/12/11 01:58:20;;;;;;;;;;;;;;;;;;5092585;28;872;-65
2022/12/11 02:00:45;;;;;;;;;;;;;;;;;;5091113;28;1439;-65
2022/12/11 02:03:11;;;;;;;;;;;;;;;;;;5092792;28;875;-65
2022/12/11 02:05:36;;;;;;;;;;;;;;;;;;5091359;28;912;-65
2022/12/11 02:08:02;;;;;;;;;;;;;;;;;;5074312;28;1190;-65
2022/12/11 02:10:34;;;;;;;;;;;;;;;;;;5074544;28;1239;-65
2022/12/11 02:13:03;;;;;;;;;;;;;;;;;;5091944;28;1886;-65
2022/12/11 02:15:41;;;;;;;;;;;;;;;;;;5092422;28;1224;-65
2022/12/11 02:18:15;;;;;;;;;;;;;;;;;;5091939;28;802;-65
2022/12/11 02:20:47;;;;;;;;;;;;;;;;;;5092647;28;832;-65
2022/12/11 02:23:12;;;;;;;;;;;;;;;;;;5092703;28;884;-65
2022/12/11 02:25:37;;;;;;;;;;;;;;;;;;5090997;28;1191;-65
2022/12/11 02:28:26;;;;;;;;;;;;;;;;;;5092130;28;884;-65
2022/12/11 02:30:58;;;;;;;;;;;;;;;;;;5086020;28;1135;-65
2022/12/11 02:33:42;;;;;;;;;;;;;;;;;;5089666;28;1948;-65
2022/12/11 02:36:08;;;;;;;;;;;;;;;;;;5090849;28;1179;-65
2022/12/11 02:38:35;;;;;;;;;;;;;;;;;;5090914;28;955;-65
2022/12/11 02:41:01;;;;;;;;;;;;;;;;;;5090139;28;1368;-65
2022/12/11 02:43:29;;;;;;;;;;;;;;;;;;5091625;28;1715;-65
2022/12/11 02:45:56;;;;;;;;;;;;;;;;;;5090944;28;980;-65
2022/12/11 02:48:23;;;;;;;;;;;;;;;;;;5089256;28;1208;-65
2022/12/11 02:50:51;;;;;;;;;;;;;;;;;;5089618;28;1242;-63
2022/12/11 02:53:17;;;;;;;;;;;;;;;;;;5092098;28;1910;-63
2022/12/11 02:55:43;;;;;;;;;;;;;;;;;;5091470;28;1014;-63
2022/12/11 02:58:16;;;;;;;;;;;;;;;;;;5090838;28;1444;-64
2022/12/11 03:00:43;;;;;;;;;;;;;;;;;;5089866;28;1361;-64
2022/12/11 03:03:09;;;;;;;;;;;;;;;;;;5089910;28;1182;-64
2022/12/11 03:05:34;;;;;;;;;;;;;;;;;;5089792;28;1276;-64
2022/12/11 03:08:01;;;;;;;;;;;;;;;;;;5089492;28;963;-65
2022/12/11 03:10:26;;;;;;;;;;;;;;;;;;5089232;28;1418;-65
2022/12/11 03:12:54;;;;;;;;;;;;;;;;;;5090285;28;1894;-69
2022/12/11 03:15:21;;;;;;;;;;;;;;;;;;5090076;28;880;-67
2022/12/11 03:17:53;;;;;;;;;;;;;;;;;;5089875;28;884;-69
2022/12/11 03:20:30;;;;;;;;;;;;;;;;;;5088745;28;1257;-69
2022/12/11 03:23:00;;;;;;;;;;;;;;;;;;5090114;28;785;-67
2022/12/11 03:25:31;;;;;;;;;;;;;;;;;;5089997;28;1010;-67
2022/12/11 03:27:57;;;;;;;;;;;;;;;;;;5089460;28;1063;-69
2022/12/11 03:30:23;;;;;;;;;;;;;;;;;;5089968;28;895;-69
2022/12/11 03:32:55;;;;;;;;;;;;;;;;;;5071193;28;1918;-67
2022/12/11 03:35:20;;;;;;;;;;;;;;;;;;5088852;28;1230;-69
2022/12/11 03:37:46;;;;;;;;;;;;;;;;;;5089473;28;872;-69
2022/12/11 03:40:14;;;;;;;;;;;;;;;;;;5088762;28;1233;-69
2022/12/11 03:42:41;;;;;;;;;;;;;;;;;;5089727;28;770;-70
2022/12/11 03:45:07;;;;;;;;;;;;;;;;;;5045247;28;1263588;-64
2022/12/11 03:47:33;;;;;;;;;;;;;;;;;;5089160;28;1444;-64
2022/12/11 03:50:00;;;;;;;;;;;;;;;;;;5090618;28;860;-64
2022/12/11 03:52:26;;;;;;;;;;;;;;;;;;5090816;28;1914;-64
2022/12/11 03:54:53;;;;;;;;;;;;;;;;;;5090051;28;876;-64
2022/12/11 03:57:20;;;;;;;;;;;;;;;;;;5089150;28;1211;-65
2022/12/11 03:59:47;;;;;;;;;;;;;;;;;;5088964;28;1364;-66
2022/12/11 04:02:12;;;;;;;;;;;;;;;;;;5089048;28;1324;-64
2022/12/11 04:04:38;;;;;;;;;;;;;;;;;;5089692;28;888;-64
2022/12/11 04:07:03;;;;;;;;;;;;;;;;;;5090412;28;1076;-64
2022/12/11 04:09:28;;;;;;;;;;;;;;;;;;5090171;28;1257;-64
2022/12/11 04:11:54;;;;;;;;;;;;;;;;;;5088524;28;1902;-64
2022/12/11 04:17:03;;;;;;;;;;;;;;;;;;5089137;28;683;-63
2022/12/11 04:24:57;;;;;;;;;;;;;;;;;;5090330;28;663;-64
2022/12/11 04:28:05;;;;;;;;;;;;;;;;;;5090229;28;793;-65
2022/12/11 04:30:13;;;;;;;;;;;;;;;;;;5087241;28;1107;-64
2022/12/11 04:32:38;;;;;;;;;;;;;;;;;;5088884;28;1901;-64
2022/12/11 04:35:04;;;;;;;;;;;;;;;;;;5091204;28;749;-64
2022/12/11 04:37:30;;;;;;;;;;;;;;;;;;5091335;28;1112;-64
2022/12/11 04:39:55;;;;;;;;;;;;;;;;;;5089563;28;907;-64
2022/12/11 04:42:20;;;;;;;;;;;;;;;;;;5089724;28;1158;-64
2022/12/11 04:44:46;;;;;;;;;;;;;;;;;;5090799;28;1076;-64
2022/12/11 04:47:11;;;;;;;;;;;;;;;;;;5089471;28;915;-64
2022/12/11 04:49:36;;;;;;;;;;;;;;;;;;5088302;28;1183;-64
2022/12/11 04:52:02;;;;;;;;;;;;;;;;;;5088574;28;1961;-66
2022/12/11 04:54:28;;;;;;;;;;;;;;;;;;5088441;28;852;-64
2022/12/11 04:56:54;;;;;;;;;;;;;;;;;;5091970;28;845;-64
2022/12/11 04:59:19;;;;;;;;;;;;;;;;;;5094198;28;848;-64
2022/12/11 05:01:44;;;;;;;;;;;;;;;;;;5093980;28;750;-64
2022/12/11 05:04:10;;;;;;;;;;;;;;;;;;5092004;28;1218;-64
2022/12/11 05:06:35;;;;;;;;;;;;;;;;;;5092272;28;865;-63
2022/12/11 05:09:00;;;;;;;;;;;;;;;;;;5092004;28;920;-63
2022/12/11 05:11:25;;;;;;;;;;;;;;;;;;5093973;28;1058;-64
2022/12/11 05:13:50;;;;;;;;;;;;;;;;;;5093642;28;1897;-64
2022/12/11 05:16:16;;;;;;;;;;;;;;;;;;5092727;28;1211;-64
2022/12/11 05:18:41;;;;;;;;;;;;;;;;;;5092170;28;1285;-64
2022/12/11 05:21:08;;;;;;;;;;;;;;;;;;5093772;28;1211;-64
2022/12/11 05:23:34;;;;;;;;;;;;;;;;;;5099939;28;1162;-64
2022/12/11 05:26:00;;;;;;;;;;;;;;;;;;5092247;28;1179;-64
2022/12/11 05:28:27;;;;;;;;;;;;;;;;;;5091590;28;1294;-64
2022/12/11 05:30:55;;;;;;;;;;;;;;;;;;5092907;28;887;-65
2022/12/11 05:33:20;;;;;;;;;;;;;;;;;;5093327;28;1901;-66
2022/12/11 05:35:47;;;;;;;;;;;;;;;;;;5093148;28;813;-65
2022/12/11 05:38:12;;;;;;;;;;;;;;;;;;5091707;28;826;-65
2022/12/11 05:40:37;;;;;;;;;;;;;;;;;;5091959;28;906;-64
2022/12/11 05:43:03;;;;;;;;;;;;;;;;;;5092750;28;1035;-64
2022/12/11 05:45:28;;;;;;;;;;;;;;;;;;5091045;28;1242;-64
2022/12/11 05:47:53;;;;;;;;;;;;;;;;;;5092386;28;888;-63
2022/12/11 05:50:19;;;;;;;;;;;;;;;;;;5091953;28;937;-64
2022/12/11 05:52:44;;;;;;;;;;;;;;;;;;5091112;28;1906;-63
2022/12/11 05:55:09;;;;;;;;;;;;;;;;;;5092673;28;915;-63
2022/12/11 05:57:34;;;;;;;;;;;;;;;;;;5092419;28;864;-63
2022/12/11 05:59:59;;;;;;;;;;;;;;;;;;5092334;28;880;-64
2022/12/11 06:02:25;;;;;;;;;;;;;;;;;;5092808;28;888;-65
2022/12/11 06:04:50;;;;;;;;;;;;;;;;;;5092689;28;947;-65
2022/12/11 06:07:15;;;;;;;;;;;;;;;;;;5092372;28;963;-65
2022/12/11 06:09:40;;;;;;;;;;;;;;;;;;5091555;28;987;-65
2022/12/11 06:12:06;;;;;;;;;;;;;;;;;;5092325;28;1956;-65
2022/12/11 06:14:31;;;;;;;;;;;;;;;;;;5091360;28;870;-65
2022/12/11 06:16:56;;;;;;;;;;;;;;;;;;5073838;28;1620;-65
2022/12/11 06:19:22;;;;;;;;;;;;;;;;;;5091855;28;987;-65
2022/12/11 06:21:50;;;;;;;;;;;;;;;;;;5091358;28;1495;-65
2022/12/11 06:24:15;;;;;;;;;;;;;;;;;;5092140;28;919;-64
2022/12/11 06:26:40;;;;;;;;;;;;;;;;;;5092520;28;823;-63
2022/12/11 06:29:05;;;;;;;;;;;;;;;;;;5092006;28;892;-63
2022/12/11 06:31:31;;;;;;;;;;;;;;;;;;5090759;28;1248;-64
2022/12/11 06:33:56;;;;;;;;;;;;;;;;;;5090677;28;1906;-64
2022/12/11 06:36:22;;;;;;;;;;;;;;;;;;5091117;28;1284;-64
2022/12/11 06:38:47;;;;;;;;;;;;;;;;;;5093263;28;911;-64
2022/12/11 06:41:13;;;;;;;;;;;;;;;;;;5091404;28;1222;-64
2022/12/11 06:43:39;;;;;;;;;;;;;;;;;;5092707;28;1076;-64
2022/12/11 06:46:05;;;;;;;;;;;;;;;;;;5090786;28;1451;-63
2022/12/11 06:48:30;;;;;;;;;;;;;;;;;;5092507;28;833;-64
2022/12/11 06:50:56;;;;;;;;;;;;;;;;;;5092229;28;987;-63
2022/12/11 06:53:22;;;;;;;;;;;;;;;;;;5073697;28;1967;-64
2022/12/11 06:55:47;;;;;;;;;;;;;;;;;;5091572;28;987;-63
2022/12/11 06:58:12;;;;;;;;;;;;;;;;;;5090280;28;967;-64
2022/12/11 07:00:38;;;;;;;;;;;;;;;;;;5090139;28;1313;-64
2022/12/11 07:03:03;;;;;;;;;;;;;;;;;;5089881;28;1228;-64
2022/12/11 07:05:29;;;;;;;;;;;;;;;;;;5091430;28;813;-64
2022/12/11 07:07:54;;;;;;;;;;;;;;;;;;5091186;28;896;-65
2022/12/11 07:10:20;;;;;;;;;;;;;;;;;;5090374;28;1330;-66
2022/12/11 07:12:45;;;;;;;;;;;;;;;;;;5073287;28;1959;-64
2022/12/11 07:15:11;;;;;;;;;;;;;;;;;;5089471;28;1086;-66
2022/12/11 07:17:36;;;;;;;;;;;;;;;;;;5091313;28;872;-66
2022/12/11 07:20:03;;;;;;;;;;;;;;;;;;5091145;28;979;-66
2022/12/11 07:22:28;;;;;;;;;;;;;;;;;;5091460;28;883;-66
2022/12/11 07:24:53;;;;;;;;;;;;;;;;;;5089523;28;1150;-66
2022/12/11 07:27:19;;;;;;;;;;;;;;;;;;5090661;28;966;-66
2022/12/11 07:29:44;;;;;;;;;;;;;;;;;;5090861;28;963;-66
2022/12/11 07:32:09;;;;;;;;;;;;;;;;;;5089609;28;1910;-66
2022/12/11 07:34:34;;;;;;;;;;;;;;;;;;5089916;28;899;-66
2022/12/11 07:37:00;;;;;;;;;;;;;;;;;;5089425;28;1022;-66
2022/12/11 07:39:25;;;;;;;;;;;;;;;;;;5089701;28;1190;-66
2022/12/11 07:41:51;;;;;;;;;;;;;;;;;;5089618;28;1218;-65
2022/12/11 07:44:16;;;;;;;;;;;;;;;;;;5088963;28;1238;-67
2022/12/11 07:46:41;;;;;;;;;;;;;;;;;;5091059;28;888;-67
2022/12/11 07:49:06;;;;;;;;;;;;;;;;;;5089102;28;1091;-67
2022/12/11 07:51:34;;;;;;;;;;;;;;;;;;5089561;28;1242;-67
2022/12/11 07:54:04;;;;;;;;;;;;;;;;;;5090290;28;1902;-67
2022/12/11 07:56:29;;;;;;;;;;;;;;;;;;5089574;28;1392;-67
2022/12/11 07:58:55;;;;;;;;;;;;;;;;;;5090481;28;896;-67
2022/12/11 08:01:22;;;;;;;;;;;;;;;;;;5089342;28;1206;-67
2022/12/11 08:03:47;;;;;;;;;;;;;;;;;;5090446;28;840;-67
2022/12/11 08:06:13;;;;;;;;;;;;;;;;;;5090446;28;872;-67
2022/12/11 08:08:38;;;;;;;;;;;;;;;;;;5089643;28;898;-67
2022/12/11 08:11:05;;;;;;;;;;;;;;;;;;5090226;28;987;-66
2022/12/11 08:13:30;;;;;;;;;;;;;;;;;;5091072;28;1952;-67
2022/12/11 08:15:55;;;;;;;;;;;;;;;;;;5090735;28;908;-69
2022/12/11 08:18:20;;;;;;;;;;;;;;;;;;5089977;28;892;-69
2022/12/11 08:20:46;;;;;;;;;;;;;;;;;;5089720;28;1378;-69
2022/12/11 08:23:11;;;;;;;;;;;;;;;;;;5091004;28;911;-69
2022/12/11 08:25:37;;;;;;;;;;;;;;;;;;5090659;28;782;-69
2022/12/11 08:28:02;;;;;;;;;;;;;;;;;;5088286;28;1178;-69
2022/12/11 08:30:27;;;;;;;;;;;;;;;;;;5073563;28;1261;-69
2022/12/11 08:32:53;;;;;;;;;;;;;;;;;;5092464;28;1960;-69
2022/12/11 08:35:18;;;;;;;;;;;;;;;;;;5092391;28;1273;-69
2022/12/11 08:37:43;;;;;;;;;;;;;;;;;;5093810;28;884;-67
2022/12/11 08:40:09;;;;;;;;;;;;;;;;;;5093934;28;955;-67
2022/12/11 08:42:35;;;;;;;;;;;;;;;;;;5095015;28;790;-67
2022/12/11 08:45:00;;;;;;;;;;;;;;;;;;5093065;28;1189;-67
2022/12/11 08:47:26;;;;;;;;;;;;;;;;;;5092864;28;908;-69
2022/12/11 08:49:51;;;;;;;;;;;;;;;;;;5092425;28;1241;-69
2022/12/11 08:52:16;;;;;;;;;;;;;;;;;;5092170;28;1894;-69
2022/12/11 08:54:41;;;;;;;;;;;;;;;;;;5092521;28;1150;-69
2022/12/11 08:57:06;;;;;;;;;;;;;;;;;;5092006;28;844;-69
2022/12/11 08:59:32;;;;;;;;;;;;;;;;;;5074979;28;1331;-69
2022/12/11 09:01:57;;;;;;;;;;;;;;;;;;5092074;28;884;-69
2022/12/11 09:04:22;;;;;;;;;;;;;;;;;;5092021;28;1131;-66
2022/12/11 09:06:48;;;;;;;;;;;;;;;;;;5093201;28;939;-67
2022/12/11 09:09:13;;;;;;;;;;;;;;;;;;5091710;28;1245;-66
2022/12/11 09:11:39;;;;;;;;;;;;;;;;;;5093729;28;868;-67
2022/12/11 09:14:05;;;;;;;;;;;;;;;;;;5074675;28;1906;-67
2022/12/11 09:16:30;;;;;;;;;;;;;;;;;;5093618;28;770;-67
2022/12/11 09:18:57;;;;;;;;;;;;;;;;;;5093553;28;841;-67
2022/12/11 09:21:24;;;;;;;;;;;;;;;;;;5093568;28;837;-66
2022/12/11 09:23:54;;;;;;;;;;;;;;;;;;5091808;28;1246;-66
2022/12/11 09:26:19;;;;;;;;;;;;;;;;;;5092811;28;1006;-67
2022/12/11 09:28:44;;;;;;;;;;;;;;;;;;5093434;28;995;-67
2022/12/11 09:31:11;;;;;;;;;;;;;;;;;;5091688;28;1313;-67
2022/12/11 09:33:36;;;;;;;;;;;;;;;;;;5093518;28;1932;-67
2022/12/11 09:36:02;;;;;;;;;;;;;;;;;;5074976;28;1155;-67
2022/12/11 09:38:28;;;;;;;;;;;;;;;;;;5093337;28;1316;-67
2022/12/11 09:40:53;;;;;;;;;;;;;;;;;;5091799;28;828;-67
2022/12/11 09:43:31;;;;;;;;;;;;;;;;;;5094442;28;911;-69
2022/12/11 09:45:59;;;;;;;;;;;;;;;;;;5092041;28;1198;-69
2022/12/11 09:48:25;;;;;;;;;;;;;;;;;;5092813;28;919;-69
2022/12/11 09:50:52;;;;;;;;;;;;;;;;;;5091049;28;1321;-69
2022/12/11 09:53:23;;;;;;;;;;;;;;;;;;5090939;28;1913;-70
2022/12/11 09:55:59;;;;;;;;;;;;;;;;;;5091165;28;1337;-69
2022/12/11 09:58:35;;;;;;;;;;;;;;;;;;5092789;28;907;-69
2022/12/11 10:01:13;;;;;;;;;;;;;;;;;;5090419;28;1341;-69
2022/12/11 10:03:52;;;;;;;;;;;;;;;;;;5092583;28;919;-66
2022/12/11 10:06:36;;;;;;;;;;;;;;;;;;5090488;28;1304;-69
2022/12/11 10:09:13;;;;;;;;;;;;;;;;;;5091454;28;872;-69
2022/12/11 10:12:14;;;;;;;;;;;;;;;;;;5091121;28;1233;-69
2022/12/11 10:14:42;;;;;;;;;;;;;;;;;;5032689;28;1563;-69
2022/12/11 10:17:13;;;;;;;;;;;;;;;;;;5082387;28;1147;-69
2022/12/11 10:19:39;;;;;;;;;;;;;;;;;;5091094;28;1183;-69
2022/12/11 10:22:11;;;;;;;;;;;;;;;;;;5090039;28;830;-68
2022/12/11 10:24:43;;;;;;;;;;;;;;;;;;5092054;28;857;-68
2022/12/11 10:27:20;;;;;;;;;;;;;;;;;;5091496;28;845;-68
2022/12/11 10:30:00;;;;;;;;;;;;;;;;;;5091706;28;853;-68
2022/12/11 10:32:29;;;;;;;;;;;;;;;;;;5091823;28;2003;-68
2022/12/11 10:35:01;;;;;;;;;;;;;;;;;;5090068;28;1308;-68
2022/12/11 10:37:27;;;;;;;;;;;;;;;;;;5092133;28;860;-68
2022/12/11 10:39:52;;;;;;;;;;;;;;;;;;5090107;28;1340;-68
2022/12/11 10:42:21;;;;;;;;;;;;;;;;;;5089799;28;852;-67
2022/12/11 10:44:57;;;;;;;;;;;;;;;;;;5091304;28;1219;-68
2022/12/11 10:47:22;;;;;;;;;;;;;;;;;;5091836;28;844;-66
2022/12/11 10:49:58;;;;;;;;;;;;;;;;;;5090394;28;881;-66
2022/12/11 10:52:30;;;;;;;;;;;;;;;;;;5091020;28;1975;-66
2022/12/11 10:54:58;;;;;;;;;;;;;;;;;;5089963;28;1245;-66
2022/12/11 10:57:28;;;;;;;;;;;;;;;;;;5092197;28;892;-66
2022/12/11 10:59:54;;;;;;;;;;;;;;;;;;5091911;28;879;-66
2022/12/11 11:02:39;;;;;;;;;;;;;;;;;;5089518;28;1176;-66
2022/12/11 11:05:12;;;;;;;;;;;;;;;;;;5090905;28;883;-66
2022/12/11 11:07:38;;;;;;;;;;;;;;;;;;5090123;28;1218;-66
2022/12/11 11:10:09;;;;;;;;;;;;;;;;;;5089401;28;1277;-66
2022/12/11 11:12:37;;;;;;;;;;;;;;;;;;5092116;28;1898;-66
2022/12/11 11:15:03;;;;;;;;;;;;;;;;;;5091770;28;848;-66
2022/12/11 11:17:30;;;;;;;;;;;;;;;;;;5092078;28;864;-66
2022/12/11 11:19:56;;;;;;;;;;;;;;;;;;5091725;28;832;-66
2022/12/11 11:22:22;;;;;;;;;;;;;;;;;;5092183;28;899;-65
2022/12/11 11:24:57;;;;;;;;;;;;;;;;;;5092263;28;801;-65
2022/12/11 11:27:35;;;;;;;;;;;;;;;;;;5090333;28;1238;-65
2022/12/11 11:30:02;;;;;;;;;;;;;;;;;;5089017;28;1222;-65
2022/12/11 11:32:37;;;;;;;;;;;;;;;;;;5090818;28;1898;-65
2022/12/11 11:35:12;;;;;;;;;;;;;;;;;;5090592;28;864;-66
2022/12/11 11:37:39;;;;;;;;;;;;;;;;;;5089709;28;1030;-65
2022/12/11 11:40:10;;;;;;;;;;;;;;;;;;5088510;28;1337;-65
2022/12/11 11:42:44;;;;;;;;;;;;;;;;;;5089693;28;1199;-65
2022/12/11 11:45:26;;;;;;;;;;;;;;;;;;5088491;28;1221;-65
2022/12/11 11:48:02;;;;;;;;;;;;;;;;;;5089494;28;1167;-65
2022/12/11 11:50:31;;;;;;;;;;;;;;;;;;5089741;28;1332;-66
2022/12/11 11:53:01;;;;;;;;;;;;;;;;;;5088682;28;1969;-65
2022/12/11 11:55:34;;;;;;;;;;;;;;;;;;5088781;28;1214;-66
2022/12/11 11:58:01;;;;;;;;;;;;;;;;;;5090051;28;829;-65
2022/12/11 12:00:28;;;;;;;;;;;;;;;;;;5089299;28;1250;-65
2022/12/11 12:02:56;;;;;;;;;;;;;;;;;;5090492;28;1042;-65
2022/12/11 12:05:24;;;;;;;;;;;;;;;;;;5089923;28;790;-66
2022/12/11 12:07:50;;;;;;;;;;;;;;;;;;5090484;28;971;-65
2022/12/11 12:10:21;;;;;;;;;;;;;;;;;;5088482;28;1262;-65
2022/12/11 12:12:55;;;;;;;;;;;;;;;;;;5090388;28;1967;-65
2022/12/11 12:15:24;;;;;;;;;;;;;;;;;;5090646;28;1161;-65
2022/12/11 12:17:54;;;;;;;;;;;;;;;;;;5090042;28;1182;-65
2022/12/11 12:20:25;;;;;;;;;;;;;;;;;;5088692;28;1001;-65
2022/12/11 12:23:09;;;;;;;;;;;;;;;;;;5089153;28;1279;-65
2022/12/11 12:25:41;;;;;;;;;;;;;;;;;;5095471;28;1238;-65
2022/12/11 12:28:19;;;;;;;;;;;;;;;;;;5096644;28;1155;-65
2022/12/11 12:30:50;;;;;;;;;;;;;;;;;;5090174;28;900;-65
2022/12/11 12:33:22;;;;;;;;;;;;;;;;;;5089479;28;1957;-65
2022/12/11 12:35:47;;;;;;;;;;;;;;;;;;5089071;28;1333;-66
2022/12/11 12:38:17;;;;;;;;;;;;;;;;;;5087912;28;1449;-65
2022/12/11 12:40:55;;;;;;;;;;;;;;;;;;5089817;28;1007;-66
2022/12/11 12:43:38;;;;;;;;;;;;;;;;;;5090432;28;936;-66
2022/12/11 12:46:15;;;;;;;;;;;;;;;;;;5090414;28;1063;-66
2022/12/11 12:48:41;;;;;;;;;;;;;;;;;;5090095;28;1403;-66
2022/12/11 12:51:06;;;;;;;;;;;;;;;;;;5089093;28;1412;-65
2022/12/11 12:53:33;;;;;;;;;;;;;;;;;;5088117;28;1996;-66
2022/12/11 12:56:00;;;;;;;;;;;;;;;;;;5088765;28;999;-65
2022/12/11 12:58:29;;;;;;;;;;;;;;;;;;5087791;28;1226;-66
2022/12/11 13:01:06;;;;;;;;;;;;;;;;;;5088820;28;867;-65
2022/12/11 13:03:34;;;;;;;;;;;;;;;;;;5087902;28;1345;-65
2022/12/11 13:06:09;;;;;;;;;;;;;;;;;;5087538;28;1249;-65
2022/12/11 13:08:39;;;;;;;;;;;;;;;;;;5090693;28;777;-65
2022/12/11 13:11:06;;;;;;;;;;;;;;;;;;5089406;28;879;-65
2022/12/11 13:13:36;;;;;;;;;;;;;;;;;;5088478;28;1949;-65
2022/12/11 13:16:05;;;;;;;;;;;;;;;;;;5088676;28;1317;-65
2022/12/11 13:18:35;;;;;;;;;;;;;;;;;;5092691;28;1400;-65
2022/12/11 13:21:02;;;;;;;;;;;;;;;;;;5093343;28;887;-65
2022/12/11 13:23:27;;;;;;;;;;;;;;;;;;5092069;28;1262;-65
2022/12/11 13:26:03;;;;;;;;;;;;;;;;;;5092282;28;1281;-65
2022/12/11 13:28:37;;;;;;;;;;;;;;;;;;5092191;28;1389;-65
2022/12/11 13:31:14;;;;;;;;;;;;;;;;;;5091677;28;1198;-65
2022/12/11 13:33:41;;;;;;;;;;;;;;;;;;5093714;28;1889;-65
2022/12/11 13:36:10;;;;;;;;;;;;;;;;;;5092419;28;805;-65
2022/12/11 13:38:36;;;;;;;;;;;;;;;;;;5092935;28;754;-66
2022/12/11 13:41:04;;;;;;;;;;;;;;;;;;5074545;28;1230;-65
2022/12/11 13:43:32;;;;;;;;;;;;;;;;;;5091744;28;1202;-65
2022/12/11 13:45:59;;;;;;;;;;;;;;;;;;5091223;28;1373;-65
2022/12/11 13:48:39;;;;;;;;;;;;;;;;;;5092177;28;860;-65
2022/12/11 13:51:05;;;;;;;;;;;;;;;;;;5091878;28;840;-65
2022/12/11 13:53:30;;;;;;;;;;;;;;;;;;5092820;28;1910;-65
2022/12/11 13:56:19;;;;;;;;;;;;;;;;;;5092682;28;1046;-65
2022/12/11 13:58:44;;;;;;;;;;;;;;;;;;5086948;28;1153;-65
2022/12/11 14:01:13;;;;;;;;;;;;;;;;;;5073889;28;1325;-65
2022/12/11 14:03:55;;;;;;;;;;;;;;;;;;5092644;28;904;-66
2022/12/11 14:06:21;;;;;;;;;;;;;;;;;;5090463;28;1206;-65
2022/12/11 14:08:52;;;;;;;;;;;;;;;;;;5092036;28;1373;-66
2022/12/11 14:11:22;;;;;;;;;;;;;;;;;;5091666;28;979;-65
2022/12/11 14:13:48;;;;;;;;;;;;;;;;;;5090710;28;1975;-65
2022/12/11 14:16:18;;;;;;;;;;;;;;;;;;5090664;28;1208;-65
2022/12/11 14:18:43;;;;;;;;;;;;;;;;;;5093225;28;849;-65
2022/12/11 14:21:17;;;;;;;;;;;;;;;;;;5092620;28;1021;-67
2022/12/11 14:23:49;;;;;;;;;;;;;;;;;;5093140;28;1490;-65
2022/12/11 14:26:22;;;;;;;;;;;;;;;;;;5092267;28;920;-65
2022/12/11 14:28:48;;;;;;;;;;;;;;;;;;5089349;28;1085;-65
2022/12/11 14:31:17;;;;;;;;;;;;;;;;;;5089999;28;1203;-65
2022/12/11 14:33:48;;;;;;;;;;;;;;;;;;5092174;28;1906;-65
2022/12/11 14:36:15;;;;;;;;;;;;;;;;;;5091291;28;833;-65
2022/12/11 14:38:45;;;;;;;;;;;;;;;;;;5090855;28;1178;-65
2022/12/11 14:41:19;;;;;;;;;;;;;;;;;;5091102;28;852;-66
2022/12/11 14:43:47;;;;;;;;;;;;;;;;;;5091871;28;1191;-66
2022/12/11 14:46:16;;;;;;;;;;;;;;;;;;5091608;28;989;-65
2022/12/11 14:49:05;;;;;;;;;;;;;;;;;;5090406;28;1246;-65
2022/12/11 14:51:33;;;;;;;;;;;;;;;;;;5081425;28;1327;-65
2022/12/11 14:53:59;;;;;;;;;;;;;;;;;;5090070;28;1963;-65
2022/12/11 14:56:26;;;;;;;;;;;;;;;;;;5090716;28;979;-65
2022/12/11 14:59:14;;;;;;;;;;;;;;;;;;5090708;28;1247;-65
2022/12/11 15:01:40;;;;;;;;;;;;;;;;;;5091464;28;1290;-65
2022/12/11 15:04:14;;;;;;;;;;;;;;;;;;5089248;28;900;-65
2022/12/11 15:06:44;;;;;;;;;;;;;;;;;;5090076;28;1345;-65
2022/12/11 15:09:16;;;;;;;;;;;;;;;;;;5090821;28;963;-66
2022/12/11 15:11:41;;;;;;;;;;;;;;;;;;5090045;28;1356;-66
2022/12/11 15:14:10;;;;;;;;;;;;;;;;;;5090403;28;1971;-65
2022/12/11 15:16:37;;;;;;;;;;;;;;;;;;5089627;28;1467;-65
2022/12/11 15:19:02;;;;;;;;;;;;;;;;;;5090900;28;903;-66
2022/12/11 15:21:32;;;;;;;;;;;;;;;;;;5071848;28;1222;-65
2022/12/11 15:23:59;;;;;;;;;;;;;;;;;;5090842;28;884;-65
2022/12/11 15:26:38;;;;;;;;;;;;;;;;;;5088674;28;1258;-65
2022/12/11 15:29:05;;;;;;;;;;;;;;;;;;5089356;28;1309;-65
2022/12/11 15:31:32;;;;;;;;;;;;;;;;;;5090486;28;1034;-65
2022/12/11 15:33:58;;;;;;;;;;;;;;;;;;5089295;28;1894;-65
2022/12/11 15:36:29;;;;;;;;;;;;;;;;;;5090008;28;828;-65
2022/12/11 15:38:54;;;;;;;;;;;;;;;;;;5090444;28;1205;-66
2022/12/11 15:41:20;;;;;;;;;;;;;;;;;;5091076;28;825;-66
2022/12/11 15:43:46;;;;;;;;;;;;;;;;;;5090187;28;1266;-66
2022/12/11 15:46:11;;;;;;;;;;;;;;;;;;5091177;28;954;-65
2022/12/11 15:48:36;;;;;;;;;;;;;;;;;;5090152;28;813;-65
2022/12/11 15:51:02;;;;;;;;;;;;;;;;;;5090049;28;988;-65
2022/12/11 15:53:27;;;;;;;;;;;;;;;;;;5089946;28;1967;-65
2022/12/11 15:55:53;;;;;;;;;;;;;;;;;;5073040;28;1276;-65
2022/12/11 15:58:19;;;;;;;;;;;;;;;;;;5089654;28;919;-65
2022/12/11 16:00:45;;;;;;;;;;;;;;;;;;5089178;28;1415;-65
2022/12/11 16:03:12;;;;;;;;;;;;;;;;;;5089900;28;951;-65
2022/12/11 16:05:37;;;;;;;;;;;;;;;;;;5088981;28;1112;-65
2022/12/11 16:08:03;;;;;;;;;;;;;;;;;;5090459;28;801;-65
2022/12/11 16:10:28;;;;;;;;;;;;;;;;;;5088576;28;986;-65
2022/12/11 16:12:58;;;;;;;;;;;;;;;;;;5089041;28;1901;-65
2022/12/11 16:15:24;;;;;;;;;;;;;;;;;;5089362;28;817;-65
2022/12/11 16:17:49;;;;;;;;;;;;;;;;;;5088655;28;1202;-65
2022/12/11 16:20:14;;;;;;;;;;;;;;;;;;5088103;28;1017;-65
2022/12/11 16:22:40;;;;;;;;;;;;;;;;;;5071709;28;1206;-65
2022/12/11 16:25:05;;;;;;;;;;;;;;;;;;5089189;28;849;-65
2022/12/11 16:27:30;;;;;;;;;;;;;;;;;;5071753;28;1156;-65
2022/12/11 16:29:56;;;;;;;;;;;;;;;;;;5088719;28;901;-65
2022/12/11 16:32:21;;;;;;;;;;;;;;;;;;5087401;28;1901;-65
2022/12/11 16:34:46;;;;;;;;;;;;;;;;;;5090451;28;916;-66
2022/12/11 16:37:12;;;;;;;;;;;;;;;;;;5088262;28;837;-67
2022/12/11 16:39:38;;;;;;;;;;;;;;;;;;5088647;28;1195;-66
2022/12/11 16:42:04;;;;;;;;;;;;;;;;;;5088313;28;1217;-66
2022/12/11 16:44:29;;;;;;;;;;;;;;;;;;5089026;28;1234;-66
2022/12/11 16:46:54;;;;;;;;;;;;;;;;;;5088811;28;1053;-66
2022/12/11 16:49:20;;;;;;;;;;;;;;;;;;5089377;28;828;-66
2022/12/11 16:51:46;;;;;;;;;;;;;;;;;;5089822;28;1231;-66
2022/12/11 16:54:11;;;;;;;;;;;;;;;;;;5090228;28;1913;-67
2022/12/11 16:56:37;;;;;;;;;;;;;;;;;;5075503;28;1271;-66
2022/12/11 16:59:03;;;;;;;;;;;;;;;;;;5094040;28;927;-66
2022/12/11 17:01:28;;;;;;;;;;;;;;;;;;5093046;28;991;-66
2022/12/11 17:03:53;;;;;;;;;;;;;;;;;;5093995;28;904;-66
2022/12/11 17:06:19;;;;;;;;;;;;;;;;;;5091992;28;954;-66
2022/12/11 17:08:45;;;;;;;;;;;;;;;;;;5092768;28;1254;-66
2022/12/11 17:11:13;;;;;;;;;;;;;;;;;;5076254;28;1191;-66
2022/12/11 17:13:38;;;;;;;;;;;;;;;;;;5092972;28;1902;-66
2022/12/11 17:16:14;;;;;;;;;;;;;;;;;;5093904;28;864;-66
2022/12/11 17:18:39;;;;;;;;;;;;;;;;;;5093200;28;1328;-66
2022/12/11 17:21:15;;;;;;;;;;;;;;;;;;5093480;28;1026;-66
2022/12/11 17:23:40;;;;;;;;;;;;;;;;;;5093480;28;979;-66
2022/12/11 17:26:09;;;;;;;;;;;;;;;;;;5074831;28;1198;-66